Beica Airport


Codes: HABE/BEI
Name: Beica Airport
City: Beica
Country: Ethiopia
Elevation: 5410 ft.

Photos at Beica Airport


   Photos courtesy of SpottingLog. You can add your own sightings and photos by signing up for a free trial today.



No photos found.

Weather at Beica Airport


Time (UTC)DescriptionTempratureWindCloud coverageVisibilityPressureHumidity
13-Jun-2024 03:00Light Rain16°C2 mph, S95%10000m1017hPa97%
13-Jun-2024 06:00Light Rain17°C2 mph, S97%10000m1017hPa94%
13-Jun-2024 09:00Broken Clouds22°C7 mph, SW73%10000m1016hPa66%
13-Jun-2024 12:00Light Rain22°C4 mph, SW63%10000m1014hPa71%
13-Jun-2024 15:00Light Rain20°C4 mph, SW47%10000m1013hPa85%
13-Jun-2024 18:00Light Rain16°C2 mph, S46%10000m1015hPa95%
13-Jun-2024 21:00Overcast Clouds16°C2 mph, SE93%10000m1016hPa93%
14-Jun-2024 00:00Light Rain16°C2 mph, NE96%10000m1015hPa91%
14-Jun-2024 03:00Light Rain16°C2 mph, E100%10000m1016hPa94%
14-Jun-2024 06:00Light Rain16°C4 mph, S100%10000m1018hPa95%
14-Jun-2024 09:00Light Rain23°C4 mph, SW85%10000m1015hPa62%
14-Jun-2024 12:00Light Rain24°C4 mph, SW73%10000m1013hPa62%
14-Jun-2024 15:00Light Rain20°C2 mph, SW96%10000m1013hPa88%
14-Jun-2024 18:00Light Rain17°C2 mph, S78%10000m1015hPa92%
14-Jun-2024 21:00Light Rain16°C2 mph, E97%10000m1015hPa95%
15-Jun-2024 00:00Moderate Rain16°C2 mph, E98%5888m1014hPa98%
15-Jun-2024 03:00Moderate Rain16°C2 mph, SE100%10000m1015hPa97%
15-Jun-2024 06:00Light Rain19°C2 mph, SE99%10000m1015hPa84%
15-Jun-2024 09:00Scattered Clouds24°C7 mph, S44%10000m1012hPa56%
15-Jun-2024 12:00Scattered Clouds25°C7 mph, SW28%10000m1010hPa55%
15-Jun-2024 15:00Light Rain21°C2 mph, SW29%10000m1011hPa82%
15-Jun-2024 18:00Light Rain17°C2 mph, S19%10000m1012hPa86%
15-Jun-2024 21:00Light Rain16°C4 mph, SE67%10000m1014hPa95%
16-Jun-2024 00:00Light Rain16°C2 mph, NE84%10000m1013hPa95%
16-Jun-2024 03:00Light Rain16°C2 mph, E99%10000m1014hPa94%
16-Jun-2024 06:00Light Rain19°C0 mph, SE93%10000m1015hPa88%
16-Jun-2024 09:00Light Rain24°C4 mph, SW63%10000m1012hPa61%
16-Jun-2024 12:00Light Rain24°C4 mph, SW46%10000m1010hPa64%
16-Jun-2024 15:00Light Rain21°C4 mph, SW61%10000m1010hPa87%
16-Jun-2024 18:00Light Rain17°C4 mph, SE65%10000m1013hPa92%
16-Jun-2024 21:00Light Rain16°C7 mph, E99%10000m1014hPa95%
17-Jun-2024 00:00Light Rain16°C2 mph, E100%10000m1013hPa96%
17-Jun-2024 03:00Overcast Clouds15°C4 mph, SE100%10000m1014hPa93%
17-Jun-2024 06:00Overcast Clouds20°C2 mph, SE100%10000m1015hPa80%
17-Jun-2024 09:00Overcast Clouds25°C4 mph, SW100%10000m1012hPa57%
17-Jun-2024 12:00Light Rain25°C4 mph, SW86%10000m1010hPa63%
17-Jun-2024 15:00Light Rain21°C4 mph, SW46%10000m1011hPa86%
17-Jun-2024 18:00Light Rain17°C4 mph, SE62%10000m1013hPa92%
17-Jun-2024 21:00Moderate Rain16°C9 mph, SE96%10000m1016hPa97%
18-Jun-2024 00:00Moderate Rain15°C4 mph, N98%10000m1015hPa97%